Time;durP1;ratioP1;P1;durP2;ratioP2;P2;SDS_P1;SDS_P2;PMS_P1;PMS_P2;Temp;Humidity;BMP_temperature;BMP_pressure;BME280_temperature;BME280_humidity;BME280_pressure;Samples;Min_cycle;Max_cycle;Signal;HPM_P1;HPM_P2
2023/01/29 00:00:11;;;;;;;12.73;11.35;;;;;;;;;;5050765;28;20887;-81
2023/01/29 00:02:37;;;;;;;11.10;10.00;;;;;;;;;;5042151;28;20447;-81
2023/01/29 00:05:05;;;;;;;12.02;10.93;;;;;;;;;;5051825;28;20427;-81
2023/01/29 00:07:31;;;;;;;12.00;10.90;;;;;;;;;;5051706;28;20381;-81
2023/01/29 00:09:57;;;;;;;11.45;10.35;;;;;;;;;;5051871;28;20850;-81
2023/01/29 00:12:23;;;;;;;10.77;9.88;;;;;;;;;;5051795;28;20373;-81
2023/01/29 00:14:49;;;;;;;11.43;10.23;;;;;;;;;;5051725;28;20426;-81
2023/01/29 00:17:15;;;;;;;11.05;9.95;;;;;;;;;;5051511;28;20389;-81
2023/01/29 00:19:42;;;;;;;10.90;9.80;;;;;;;;;;5051718;28;20377;-80
2023/01/29 00:22:08;;;;;;;10.23;9.23;;;;;;;;;;5052036;28;20390;-81
2023/01/29 00:24:34;;;;;;;10.45;9.55;;;;;;;;;;5033889;28;20435;-81
2023/01/29 00:27:00;;;;;;;10.75;9.75;;;;;;;;;;5051565;28;20416;-81
2023/01/29 00:29:26;;;;;;;10.40;9.40;;;;;;;;;;5051218;28;20378;-80
2023/01/29 00:31:52;;;;;;;10.93;9.80;;;;;;;;;;5051737;28;20374;-81
2023/01/29 00:34:19;;;;;;;10.68;9.68;;;;;;;;;;5049937;28;20404;-81
2023/01/29 00:36:45;;;;;;;10.70;9.60;;;;;;;;;;5031694;28;21010;-81
2023/01/29 00:39:11;;;;;;;10.18;9.18;;;;;;;;;;5026854;28;20738;-80
2023/01/29 00:49:52;;;;;;;9.80;8.90;;;;;;;;;;5055134;28;20930;-81
2023/01/29 00:52:24;;;;;;;9.85;8.95;;;;;;;;;;5055481;28;20389;-81
2023/01/29 00:54:55;;;;;;;9.75;8.85;;;;;;;;;;5054454;28;20381;-81
2023/01/29 00:57:24;;;;;;;10.00;9.10;;;;;;;;;;5054534;28;20425;-81
2023/01/29 00:59:51;;;;;;;9.88;8.98;;;;;;;;;;5048094;28;20454;-81
2023/01/29 01:05:04;;;;;;;9.87;8.97;;;;;;;;;;5053280;28;20439;-81
2023/01/29 01:07:31;;;;;;;9.68;8.68;;;;;;;;;;5052786;28;20385;-81
2023/01/29 01:12:42;;;;;;;9.80;8.90;;;;;;;;;;5053145;28;20462;-81
2023/01/29 01:15:08;;;;;;;10.00;9.07;;;;;;;;;;5053003;28;20375;-81
2023/01/29 01:17:35;;;;;;;9.27;8.48;;;;;;;;;;5042351;28;20399;-81
2023/01/29 01:20:01;;;;;;;9.95;9.05;;;;;;;;;;5054507;28;20377;-81
2023/01/29 01:22:27;;;;;;;9.60;8.80;;;;;;;;;;5054669;28;20436;-81
2023/01/29 01:24:53;;;;;;;10.27;9.32;;;;;;;;;;5054294;28;20373;-81
2023/01/29 01:27:20;;;;;;;10.60;9.60;;;;;;;;;;5054010;28;20891;-81
2023/01/29 01:29:46;;;;;;;10.50;9.50;;;;;;;;;;5054385;28;20385;-81
2023/01/29 01:32:13;;;;;;;9.70;8.80;;;;;;;;;;5054544;28;20415;-81
2023/01/29 01:34:39;;;;;;;10.55;9.55;;;;;;;;;;5053867;28;20405;-81
2023/01/29 01:37:05;;;;;;;11.30;10.30;;;;;;;;;;5053859;28;20392;-81
2023/01/29 01:39:31;;;;;;;11.38;10.30;;;;;;;;;;5054083;28;20382;-81
2023/01/29 01:41:57;;;;;;;11.27;10.27;;;;;;;;;;5054232;28;20397;-81
2023/01/29 01:44:42;;;;;;;11.45;10.45;;;;;;;;;;5053949;28;20409;-81
2023/01/29 01:47:08;;;;;;;10.60;9.70;;;;;;;;;;5035752;28;20483;-81
2023/01/29 01:49:34;;;;;;;11.00;10.00;;;;;;;;;;5054071;28;20511;-81
2023/01/29 01:52:01;;;;;;;11.43;10.32;;;;;;;;;;5054100;28;20384;-81
2023/01/29 01:54:28;;;;;;;10.73;9.80;;;;;;;;;;5053430;28;20373;-81
2023/01/29 01:57:08;;;;;;;11.60;10.50;;;;;;;;;;5052970;28;20389;-81
2023/01/29 01:59:36;;;;;;;11.18;10.18;;;;;;;;;;5053935;28;20459;-81
2023/01/29 02:10:18;;;;;;;9.90;9.10;;;;;;;;;;5053610;28;20389;-81
2023/01/29 02:12:45;;;;;;;10.77;9.77;;;;;;;;;;5053575;28;20370;-81
2023/01/29 02:15:12;;;;;;;10.38;9.48;;;;;;;;;;5053213;28;20382;-81
2023/01/29 02:17:38;;;;;;;10.77;9.87;;;;;;;;;;5053214;28;20377;-81
2023/01/29 02:20:23;;;;;;;10.73;9.82;;;;;;;;;;5053658;28;20435;-81
2023/01/29 02:23:01;;;;;;;11.30;10.30;;;;;;;;;;5053354;28;20423;-81
2023/01/29 02:25:36;;;;;;;9.80;9.00;;;;;;;;;;5052933;28;20969;-81
2023/01/29 02:28:15;;;;;;;10.48;9.52;;;;;;;;;;5051851;28;20422;-81
2023/01/29 02:30:46;;;;;;;10.55;9.63;;;;;;;;;;5052423;28;20442;-81
2023/01/29 02:33:29;;;;;;;11.07;10.13;;;;;;;;;;5034203;28;20503;-83
2023/01/29 02:35:55;;;;;;;10.38;9.45;;;;;;;;;;5048954;28;20496;-81
2023/01/29 02:38:21;;;;;;;9.65;8.85;;;;;;;;;;5049592;28;20410;-81
2023/01/29 02:40:47;;;;;;;10.60;9.70;;;;;;;;;;5050153;28;20385;-82
2023/01/29 02:43:14;;;;;;;10.55;9.63;;;;;;;;;;5054142;28;20780;-80
2023/01/29 02:45:49;;;;;;;10.45;9.45;;;;;;;;;;5052631;28;20755;-80
2023/01/29 02:48:20;;;;;;;10.93;9.93;;;;;;;;;;5055701;28;20377;-79
2023/01/29 02:50:54;;;;;;;10.13;9.30;;;;;;;;;;5054708;28;20433;-79
2023/01/29 02:53:26;;;;;;;9.57;8.77;;;;;;;;;;5035346;28;20977;-82
2023/01/29 02:55:58;;;;;;;9.60;8.80;;;;;;;;;;5053617;28;20998;-80
2023/01/29 02:58:28;;;;;;;9.30;8.50;;;;;;;;;;5052466;28;20447;-81
2023/01/29 03:00:55;;;;;;;9.38;8.57;;;;;;;;;;5051639;28;20481;-81
2023/01/29 03:03:25;;;;;;;9.30;8.50;;;;;;;;;;5049221;28;20377;-81
2023/01/29 03:05:55;;;;;;;9.10;8.27;;;;;;;;;;5049071;28;20456;-81
2023/01/29 03:08:41;;;;;;;8.38;7.68;;;;;;;;;;5051218;28;20431;-81
2023/01/29 03:11:12;;;;;;;8.70;8.00;;;;;;;;;;5051547;28;20407;-81
2023/01/29 03:13:38;;;;;;;8.63;7.93;;;;;;;;;;5051440;28;20451;-81
2023/01/29 03:16:08;;;;;;;8.60;7.90;;;;;;;;;;5050984;28;20417;-80
2023/01/29 03:18:42;;;;;;;9.30;8.50;;;;;;;;;;5051337;28;20430;-82
2023/01/29 03:32:14;;;;;;;8.95;8.23;;;;;;;;;;5035817;28;20502;-81
2023/01/29 03:34:47;;;;;;;8.80;8.05;;;;;;;;;;5033040;28;20892;-82
2023/01/29 03:37:14;;;;;;;8.48;7.68;;;;;;;;;;5032605;28;20415;-82
2023/01/29 03:39:40;;;;;;;8.10;7.50;;;;;;;;;;5013877;28;20406;-81
2023/01/29 03:42:22;;;;;;;8.02;7.43;;;;;;;;;;5036164;28;20391;-81
2023/01/29 03:44:59;;;;;;;8.75;8.05;;;;;;;;;;5035147;28;20834;-80
2023/01/29 03:47:31;;;;;;;8.65;7.95;;;;;;;;;;5038318;28;20414;-80
2023/01/29 03:50:05;;;;;;;9.20;8.40;;;;;;;;;;5048571;28;20385;-80
2023/01/29 03:52:37;;;;;;;8.82;8.13;;;;;;;;;;5050959;28;20445;-80
2023/01/29 03:55:18;;;;;;;8.93;8.18;;;;;;;;;;5051819;28;20442;-80
2023/01/29 03:57:52;;;;;;;9.45;8.65;;;;;;;;;;5051902;28;20438;-80
2023/01/29 04:00:21;;;;;;;8.50;7.80;;;;;;;;;;5051084;28;20870;-80
2023/01/29 04:02:56;;;;;;;13.88;12.57;;;;;;;;;;5047832;28;20577;-80
2023/01/29 04:05:25;;;;;;;10.70;9.80;;;;;;;;;;5051494;28;20481;-80
2023/01/29 04:07:54;;;;;;;9.88;9.02;;;;;;;;;;5051928;28;20978;-80
2023/01/29 04:10:24;;;;;;;10.27;9.48;;;;;;;;;;5051821;28;20381;-80
2023/01/29 04:12:59;;;;;;;14.40;12.90;;;;;;;;;;5051778;28;20456;-80
2023/01/29 04:15:27;;;;;;;11.60;10.50;;;;;;;;;;5051259;28;20409;-80
2023/01/29 04:17:55;;;;;;;10.10;9.27;;;;;;;;;;5053433;28;20460;-80
2023/01/29 04:20:21;;;;;;;9.20;8.40;;;;;;;;;;5037744;28;20792;-80
2023/01/29 04:22:49;;;;;;;9.30;8.60;;;;;;;;;;5055622;28;20377;-80
2023/01/29 04:25:16;;;;;;;9.10;8.30;;;;;;;;;;5055462;28;20377;-80
2023/01/29 04:27:45;;;;;;;9.18;8.27;;;;;;;;;;5055562;28;20464;-80
2023/01/29 04:30:11;;;;;;;10.50;9.57;;;;;;;;;;5054336;28;20507;-80
2023/01/29 04:32:54;;;;;;;9.98;9.07;;;;;;;;;;5041327;28;20421;-80
2023/01/29 04:35:36;;;;;;;9.13;8.40;;;;;;;;;;5042080;28;20403;-80
2023/01/29 04:38:11;;;;;;;10.05;9.15;;;;;;;;;;5051844;28;20442;-80
2023/01/29 04:40:37;;;;;;;9.60;8.70;;;;;;;;;;5054243;28;20401;-80
2023/01/29 04:43:08;;;;;;;9.73;8.93;;;;;;;;;;5055264;28;20389;-80
2023/01/29 04:45:54;;;;;;;26.65;17.48;;;;;;;;;;5054381;28;20544;-80
2023/01/29 04:48:20;;;;;;;12.50;11.07;;;;;;;;;;5055075;28;20424;-80
2023/01/29 04:50:53;;;;;;;11.43;10.33;;;;;;;;;;5055351;28;20440;-80
2023/01/29 04:53:35;;;;;;;14.10;12.10;;;;;;;;;;5055288;28;20422;-80
2023/01/29 04:56:08;;;;;;;12.27;11.00;;;;;;;;;;5055290;28;20445;-79
2023/01/29 04:58:44;;;;;;;9.25;8.52;;;;;;;;;;5054575;28;20527;-79
2023/01/29 05:01:12;;;;;;;9.88;9.07;;;;;;;;;;5045980;28;20473;-80
2023/01/29 05:03:40;;;;;;;10.10;9.20;;;;;;;;;;5055146;28;20378;-80
2023/01/29 05:06:07;;;;;;;13.93;12.03;;;;;;;;;;5054921;28;20504;-80
2023/01/29 05:08:34;;;;;;;182.13;66.97;;;;;;;;;;5054559;28;20934;-80
2023/01/29 05:11:00;;;;;;;257.65;87.65;;;;;;;;;;5054892;28;20464;-80
2023/01/29 05:13:28;;;;;;;56.38;25.92;;;;;;;;;;5037080;28;20428;-80
2023/01/29 05:15:57;;;;;;;17.63;15.75;;;;;;;;;;5054938;28;20386;-80
2023/01/29 05:18:23;;;;;;;12.07;11.07;;;;;;;;;;5055007;28;20435;-80
2023/01/29 05:20:49;;;;;;;10.73;9.90;;;;;;;;;;5054914;28;20905;-80
2023/01/29 05:23:15;;;;;;;10.57;9.63;;;;;;;;;;5054707;28;20887;-80
2023/01/29 05:25:41;;;;;;;11.30;10.40;;;;;;;;;;5054590;28;20917;-80
2023/01/29 05:28:17;;;;;;;12.52;11.52;;;;;;;;;;5054642;28;20916;-80
2023/01/29 05:30:48;;;;;;;11.23;10.32;;;;;;;;;;5052041;28;20460;-80
2023/01/29 05:33:15;;;;;;;11.68;10.75;;;;;;;;;;5054429;28;20441;-80
2023/01/29 05:35:41;;;;;;;11.57;10.57;;;;;;;;;;5054383;28;20411;-80
2023/01/29 05:38:07;;;;;;;10.80;9.95;;;;;;;;;;5054358;28;20381;-80
2023/01/29 05:40:33;;;;;;;10.95;9.95;;;;;;;;;;5036128;28;21301;-80
2023/01/29 05:42:59;;;;;;;10.95;10.05;;;;;;;;;;5053884;28;20411;-81
2023/01/29 05:45:25;;;;;;;10.50;9.70;;;;;;;;;;5054185;28;20377;-80
2023/01/29 05:47:55;;;;;;;10.43;9.43;;;;;;;;;;5054368;28;20382;-81
2023/01/29 05:50:21;;;;;;;10.40;9.60;;;;;;;;;;5054310;28;20915;-80
2023/01/29 05:52:47;;;;;;;11.40;10.40;;;;;;;;;;5054501;28;20382;-80
2023/01/29 05:55:13;;;;;;;10.90;10.00;;;;;;;;;;5052446;28;20389;-80
2023/01/29 05:57:40;;;;;;;11.97;10.93;;;;;;;;;;5054461;28;20412;-81
2023/01/29 06:00:06;;;;;;;11.65;10.55;;;;;;;;;;5054098;28;20385;-81
2023/01/29 06:02:32;;;;;;;11.45;10.55;;;;;;;;;;5054455;28;20847;-81
2023/01/29 06:04:58;;;;;;;11.68;10.65;;;;;;;;;;5054471;28;20413;-81
2023/01/29 06:07:24;;;;;;;11.95;10.95;;;;;;;;;;5052978;28;20409;-80
2023/01/29 06:09:50;;;;;;;12.88;11.88;;;;;;;;;;5037495;28;20863;-81
2023/01/29 06:12:16;;;;;;;11.57;10.57;;;;;;;;;;5054788;28;20388;-80
2023/01/29 06:14:42;;;;;;;12.13;11.13;;;;;;;;;;5062152;28;20393;-80
2023/01/29 06:17:10;;;;;;;10.90;10.00;;;;;;;;;;5057107;28;20821;-80
2023/01/29 06:19:36;;;;;;;11.02;10.15;;;;;;;;;;5059174;28;20417;-81
2023/01/29 06:22:02;;;;;;;11.00;10.10;;;;;;;;;;5055700;28;20480;-81
2023/01/29 06:24:29;;;;;;;10.95;10.05;;;;;;;;;;5053596;28;20369;-81
2023/01/29 06:26:55;;;;;;;11.25;10.25;;;;;;;;;;5035135;28;20413;-81
2023/01/29 06:29:21;;;;;;;11.10;10.18;;;;;;;;;;5046408;28;20396;-81
2023/01/29 06:31:47;;;;;;;10.27;9.48;;;;;;;;;;5053815;28;20381;-81
2023/01/29 06:34:13;;;;;;;11.07;10.07;;;;;;;;;;5053352;28;20755;-81
2023/01/29 06:36:40;;;;;;;11.45;10.55;;;;;;;;;;5052737;28;20462;-81
2023/01/29 06:39:06;;;;;;;11.10;10.20;;;;;;;;;;5050476;28;20491;-83
2023/01/29 06:41:32;;;;;;;12.00;11.00;;;;;;;;;;5053264;28;20407;-80
2023/01/29 06:43:58;;;;;;;11.07;10.18;;;;;;;;;;5053331;28;20401;-80
2023/01/29 06:46:24;;;;;;;11.50;10.50;;;;;;;;;;5050345;28;20428;-83
2023/01/29 06:48:50;;;;;;;11.05;10.15;;;;;;;;;;5034521;28;20747;-83
2023/01/29 06:51:17;;;;;;;11.35;10.35;;;;;;;;;;5053331;28;20963;-83
2023/01/29 06:53:43;;;;;;;11.00;10.10;;;;;;;;;;5054087;28;20384;-82
2023/01/29 06:56:09;;;;;;;11.05;10.15;;;;;;;;;;5053192;28;20385;-83
2023/01/29 06:58:38;;;;;;;11.57;10.57;;;;;;;;;;5053369;28;20397;-83
2023/01/29 07:01:04;;;;;;;11.07;10.07;;;;;;;;;;5053084;28;20381;-82
2023/01/29 07:03:30;;;;;;;11.70;10.70;;;;;;;;;;5052951;28;20381;-82
2023/01/29 07:05:56;;;;;;;19.42;16.77;;;;;;;;;;5052455;28;20763;-84
2023/01/29 07:08:22;;;;;;;18.17;16.48;;;;;;;;;;5052429;28;20377;-83
2023/01/29 07:10:48;;;;;;;12.95;11.85;;;;;;;;;;5053545;28;20377;-84
2023/01/29 07:13:15;;;;;;;19.67;16.23;;;;;;;;;;5053781;28;20411;-84
2023/01/29 07:15:41;;;;;;;12.20;11.10;;;;;;;;;;5053115;28;20746;-83
2023/01/29 07:18:11;;;;;;;12.23;11.10;;;;;;;;;;5053641;28;20381;-83
2023/01/29 07:20:38;;;;;;;11.27;10.32;;;;;;;;;;5053362;28;20392;-84
2023/01/29 07:23:04;;;;;;;10.45;9.55;;;;;;;;;;5053341;28;20443;-84
2023/01/29 07:25:30;;;;;;;11.60;10.50;;;;;;;;;;5053379;28;20382;-83
2023/01/29 07:27:59;;;;;;;10.75;9.80;;;;;;;;;;5053505;28;20380;-83
2023/01/29 07:30:25;;;;;;;10.85;9.95;;;;;;;;;;5052105;28;20444;-83
2023/01/29 07:32:51;;;;;;;10.60;9.70;;;;;;;;;;5038931;28;20886;-83
2023/01/29 07:35:17;;;;;;;11.25;10.25;;;;;;;;;;5034521;28;20462;-83
2023/01/29 07:37:43;;;;;;;10.35;9.45;;;;;;;;;;5044068;28;20864;-83
2023/01/29 07:40:10;;;;;;;9.80;9.00;;;;;;;;;;5052642;28;20388;-83
2023/01/29 07:42:41;;;;;;;9.77;8.98;;;;;;;;;;5052331;28;20918;-83
2023/01/29 07:45:07;;;;;;;9.50;8.70;;;;;;;;;;5052425;28;20430;-83
2023/01/29 07:47:33;;;;;;;9.60;8.80;;;;;;;;;;5052393;28;20555;-83
2023/01/29 07:49:59;;;;;;;9.57;8.77;;;;;;;;;;5051968;28;20389;-83
2023/01/29 07:52:25;;;;;;;9.38;8.68;;;;;;;;;;5054703;28;20738;-83
2023/01/29 07:54:51;;;;;;;12.43;11.33;;;;;;;;;;5033259;28;20391;-83
2023/01/29 07:57:17;;;;;;;9.77;8.98;;;;;;;;;;5041092;28;20396;-83
2023/01/29 07:59:43;;;;;;;11.13;10.23;;;;;;;;;;5058582;28;20386;-83
2023/01/29 08:02:09;;;;;;;9.75;8.95;;;;;;;;;;5058719;28;20471;-83
2023/01/29 08:04:35;;;;;;;9.77;8.98;;;;;;;;;;5058815;28;20431;-82
2023/01/29 08:07:03;;;;;;;9.07;8.38;;;;;;;;;;5058439;28;20770;-83
2023/01/29 08:09:29;;;;;;;8.57;7.88;;;;;;;;;;5058851;28;20432;-83
2023/01/29 08:11:55;;;;;;;9.93;9.13;;;;;;;;;;5040711;28;20397;-83
2023/01/29 08:14:22;;;;;;;11.55;10.55;;;;;;;;;;5058521;28;20381;-83
2023/01/29 08:16:48;;;;;;;9.43;8.60;;;;;;;;;;5058579;28;20415;-83
2023/01/29 08:19:14;;;;;;;8.30;7.57;;;;;;;;;;5058433;28;20758;-83
2023/01/29 08:21:40;;;;;;;9.20;8.40;;;;;;;;;;5040923;28;20434;-83
2023/01/29 08:24:06;;;;;;;9.65;8.85;;;;;;;;;;5058736;28;20852;-83
2023/01/29 08:26:32;;;;;;;9.75;8.95;;;;;;;;;;5058572;28;20960;-83
2023/01/29 08:28:58;;;;;;;11.40;10.43;;;;;;;;;;5058666;28;20369;-83
2023/01/29 08:31:24;;;;;;;10.60;9.70;;;;;;;;;;5058358;28;20407;-83
2023/01/29 08:33:50;;;;;;;10.57;9.68;;;;;;;;;;5058288;28;20374;-83
2023/01/29 08:36:16;;;;;;;10.38;9.55;;;;;;;;;;5058402;28;20385;-83
2023/01/29 08:38:42;;;;;;;11.45;10.45;;;;;;;;;;5058930;28;20377;-83
2023/01/29 08:41:08;;;;;;;11.52;10.32;;;;;;;;;;5058658;28;20796;-83
2023/01/29 08:43:37;;;;;;;11.40;10.30;;;;;;;;;;5058505;28;20381;-83
2023/01/29 08:46:04;;;;;;;11.20;10.30;;;;;;;;;;5058519;28;20449;-83
2023/01/29 08:48:30;;;;;;;11.13;10.13;;;;;;;;;;5058285;28;20437;-83
2023/01/29 08:50:58;;;;;;;11.00;10.00;;;;;;;;;;5058504;28;20378;-83
2023/01/29 08:53:24;;;;;;;11.50;10.50;;;;;;;;;;5058413;28;20862;-83
2023/01/29 08:55:51;;;;;;;13.13;11.95;;;;;;;;;;5058337;28;20387;-83
2023/01/29 08:58:17;;;;;;;13.10;12.00;;;;;;;;;;5058227;28;20396;-83
2023/01/29 09:00:43;;;;;;;13.45;12.32;;;;;;;;;;5056364;28;20381;-83
2023/01/29 09:03:09;;;;;;;14.40;12.97;;;;;;;;;;5058493;28;20388;-83
2023/01/29 09:05:36;;;;;;;14.70;12.43;;;;;;;;;;5054257;28;20897;-84
2023/01/29 09:08:02;;;;;;;14.63;13.15;;;;;;;;;;5054854;28;20387;-83
2023/01/29 09:10:27;;;;;;;14.70;13.30;;;;;;;;;;5055139;28;20452;-83
2023/01/29 09:12:53;;;;;;;13.82;12.63;;;;;;;;;;5055309;28;20377;-83
2023/01/29 09:15:19;;;;;;;14.10;12.88;;;;;;;;;;5056072;28;20382;-83
2023/01/29 09:17:45;;;;;;;13.10;11.93;;;;;;;;;;5039796;28;20867;-83
2023/01/29 09:20:11;;;;;;;15.07;13.50;;;;;;;;;;5055559;28;20389;-83
2023/01/29 09:22:37;;;;;;;17.83;12.55;;;;;;;;;;5058581;28;20394;-83
2023/01/29 09:25:04;;;;;;;13.30;12.07;;;;;;;;;;5064390;28;20390;-83
2023/01/29 09:27:30;;;;;;;14.32;12.73;;;;;;;;;;5065897;28;20433;-83
2023/01/29 09:29:56;;;;;;;13.18;11.98;;;;;;;;;;5071455;28;20427;-81
2023/01/29 09:32:22;;;;;;;13.63;12.15;;;;;;;;;;5054057;28;20383;-82
2023/01/29 09:34:48;;;;;;;12.20;11.17;;;;;;;;;;5064952;28;20444;-84
2023/01/29 09:37:16;;;;;;;10.45;9.65;;;;;;;;;;5039936;28;20405;-81
2023/01/29 09:39:42;;;;;;;10.55;9.63;;;;;;;;;;5054825;28;20808;-82
2023/01/29 09:42:12;;;;;;;11.70;10.70;;;;;;;;;;5055146;28;20420;-82
2023/01/29 09:44:38;;;;;;;10.30;9.48;;;;;;;;;;5054347;28;20746;-83
2023/01/29 09:47:06;;;;;;;10.95;10.05;;;;;;;;;;5054761;28;20408;-82
2023/01/29 09:49:36;;;;;;;9.50;8.70;;;;;;;;;;5053767;28;20404;-83
2023/01/29 09:52:06;;;;;;;10.63;9.73;;;;;;;;;;5044131;28;20374;-83
2023/01/29 09:54:32;;;;;;;11.37;10.33;;;;;;;;;;5054541;28;20436;-83
2023/01/29 09:56:58;;;;;;;11.23;10.25;;;;;;;;;;5053961;28;20381;-83
2023/01/29 09:59:26;;;;;;;12.70;10.40;;;;;;;;;;5054260;28;20438;-83
2023/01/29 10:02:07;;;;;;;13.18;11.23;;;;;;;;;;5054505;28;20969;-83
2023/01/29 10:05:02;;;;;;;12.80;11.00;;;;;;;;;;5054284;28;20389;-83
2023/01/29 10:07:34;;;;;;;12.45;11.25;;;;;;;;;;4983370;28;20421;-83
2023/01/29 10:10:09;;;;;;;15.32;11.57;;;;;;;;;;5053897;28;20385;-82
2023/01/29 10:12:35;;;;;;;13.10;11.80;;;;;;;;;;5054015;28;20468;-82
2023/01/29 10:15:10;;;;;;;13.35;11.95;;;;;;;;;;5053520;28;20386;-83
2023/01/29 10:17:36;;;;;;;12.60;11.40;;;;;;;;;;5053975;28;20446;-83
2023/01/29 10:20:14;;;;;;;13.00;11.70;;;;;;;;;;5036037;28;20500;-82
2023/01/29 10:22:44;;;;;;;27.33;16.73;;;;;;;;;;5053870;28;20973;-83
2023/01/29 10:25:11;;;;;;;19.80;14.95;;;;;;;;;;5053577;28;20384;-83
2023/01/29 10:27:38;;;;;;;13.43;11.38;;;;;;;;;;5053365;28;20404;-83
2023/01/29 10:30:19;;;;;;;10.90;9.90;;;;;;;;;;5053419;28;20378;-83
2023/01/29 10:32:46;;;;;;;11.40;10.40;;;;;;;;;;5053411;28;20438;-83
2023/01/29 10:35:32;;;;;;;10.00;9.20;;;;;;;;;;5035299;28;20417;-83
2023/01/29 10:38:02;;;;;;;10.02;9.20;;;;;;;;;;5052928;28;20897;-83
2023/01/29 10:40:37;;;;;;;11.63;10.52;;;;;;;;;;5053341;28;20821;-83
2023/01/29 10:43:03;;;;;;;11.88;10.65;;;;;;;;;;5053031;28;20965;-83
2023/01/29 10:45:42;;;;;;;11.95;10.70;;;;;;;;;;5052833;28;20468;-82
2023/01/29 10:48:27;;;;;;;15.30;10.80;;;;;;;;;;5053260;28;20442;-83
2023/01/29 10:51:16;;;;;;;11.52;10.43;;;;;;;;;;5053061;28;20447;-82
2023/01/29 10:53:47;;;;;;;10.77;9.77;;;;;;;;;;5042441;28;20434;-83
2023/01/29 10:56:19;;;;;;;11.13;10.20;;;;;;;;;;5035121;28;20868;-82
2023/01/29 10:58:51;;;;;;;11.40;10.30;;;;;;;;;;5052915;28;20399;-83
2023/01/29 11:01:16;;;;;;;11.68;10.57;;;;;;;;;;5052863;28;20390;-83
2023/01/29 11:03:42;;;;;;;12.02;10.93;;;;;;;;;;5052618;28;20743;-83
2023/01/29 11:06:12;;;;;;;11.80;10.60;;;;;;;;;;5052289;28;20401;-83
2023/01/29 11:08:42;;;;;;;11.20;10.07;;;;;;;;;;5052893;28;20466;-83
2023/01/29 11:11:21;;;;;;;11.70;10.65;;;;;;;;;;5052072;28;20374;-83
2023/01/29 11:13:50;;;;;;;12.40;11.20;;;;;;;;;;5052425;28;20446;-83
2023/01/29 11:16:16;;;;;;;11.82;10.73;;;;;;;;;;5052620;28;20415;-83
2023/01/29 11:18:49;;;;;;;11.70;10.48;;;;;;;;;;5052716;28;20382;-83
2023/01/29 11:21:15;;;;;;;10.98;10.07;;;;;;;;;;5034767;28;20517;-82
2023/01/29 11:23:41;;;;;;;30.90;12.70;;;;;;;;;;5052416;28;20440;-83
2023/01/29 11:26:09;;;;;;;11.70;10.70;;;;;;;;;;5052370;28;20409;-83
2023/01/29 11:28:40;;;;;;;12.57;11.48;;;;;;;;;;5051752;28;20848;-83
2023/01/29 11:31:22;;;;;;;12.15;11.05;;;;;;;;;;5052312;28;20410;-83
2023/01/29 11:33:51;;;;;;;15.25;11.68;;;;;;;;;;5052298;28;20425;-82
2023/01/29 11:36:34;;;;;;;11.75;10.65;;;;;;;;;;5050696;28;20428;-83
2023/01/29 11:39:06;;;;;;;11.60;10.50;;;;;;;;;;5043938;28;20949;-83
2023/01/29 11:41:42;;;;;;;11.80;10.60;;;;;;;;;;5034206;28;20922;-83
2023/01/29 11:44:22;;;;;;;11.60;10.55;;;;;;;;;;5034451;28;20453;-83
2023/01/29 11:46:48;;;;;;;11.23;10.33;;;;;;;;;;5051308;28;20505;-85
2023/01/29 11:49:22;;;;;;;10.57;9.68;;;;;;;;;;5051070;28;20400;-84
2023/01/29 11:51:55;;;;;;;12.02;11.00;;;;;;;;;;5032409;28;20982;-84
2023/01/29 11:54:25;;;;;;;12.32;11.13;;;;;;;;;;5050871;28;20449;-84
2023/01/29 11:56:51;;;;;;;12.32;10.82;;;;;;;;;;5048655;28;20385;-84
2023/01/29 11:59:26;;;;;;;11.50;10.50;;;;;;;;;;5033608;28;20400;-84
2023/01/29 12:01:52;;;;;;;11.38;10.27;;;;;;;;;;5051955;28;20430;-84
2023/01/29 12:04:19;;;;;;;10.77;9.68;;;;;;;;;;5051354;28;20386;-83
2023/01/29 12:06:47;;;;;;;11.35;10.35;;;;;;;;;;5051833;28;20455;-83
2023/01/29 12:09:19;;;;;;;10.60;9.63;;;;;;;;;;5051503;28;20451;-83
2023/01/29 12:11:44;;;;;;;11.85;10.07;;;;;;;;;;5051837;28;20374;-84
2023/01/29 12:14:40;;;;;;;10.27;9.27;;;;;;;;;;5051824;28;20648;-83
2023/01/29 12:17:10;;;;;;;10.70;9.60;;;;;;;;;;5038592;28;20890;-83
2023/01/29 12:19:36;;;;;;;10.67;9.57;;;;;;;;;;5050380;28;20453;-82
2023/01/29 12:22:05;;;;;;;10.45;9.55;;;;;;;;;;5051524;28;20385;-84
2023/01/29 12:24:35;;;;;;;10.13;9.23;;;;;;;;;;5051620;28;20874;-84
2023/01/29 12:27:23;;;;;;;9.15;8.38;;;;;;;;;;5051730;28;20545;-84
2023/01/29 12:29:52;;;;;;;10.20;9.38;;;;;;;;;;5051699;28;20387;-84
2023/01/29 12:32:45;;;;;;;9.98;8.98;;;;;;;;;;5051935;28;20418;-84
2023/01/29 12:35:18;;;;;;;9.70;8.90;;;;;;;;;;5051546;28;20453;-84
2023/01/29 12:38:07;;;;;;;9.77;8.98;;;;;;;;;;5051834;28;20430;-84
2023/01/29 12:40:41;;;;;;;10.02;9.23;;;;;;;;;;5055864;28;20448;-84
2023/01/29 12:43:13;;;;;;;10.35;9.35;;;;;;;;;;5055348;28;20438;-84
2023/01/29 12:45:41;;;;;;;9.40;8.70;;;;;;;;;;5055406;28;20854;-85
2023/01/29 12:48:13;;;;;;;9.98;9.13;;;;;;;;;;5037461;28;20820;-84
2023/01/29 12:50:40;;;;;;;9.13;8.32;;;;;;;;;;5037938;28;20415;-84
2023/01/29 12:53:25;;;;;;;9.70;8.80;;;;;;;;;;5065311;28;20411;-84
2023/01/29 12:55:54;;;;;;;9.82;8.93;;;;;;;;;;5064797;28;20407;-84
2023/01/29 12:58:22;;;;;;;10.18;9.05;;;;;;;;;;5072052;28;20406;-81
2023/01/29 13:00:50;;;;;;;9.10;8.30;;;;;;;;;;5076572;28;20385;-83
2023/01/29 13:03:16;;;;;;;11.30;9.20;;;;;;;;;;5067065;28;20456;-84
2023/01/29 13:05:48;;;;;;;10.02;8.93;;;;;;;;;;5059065;28;20370;-83
2023/01/29 13:08:18;;;;;;;9.15;8.38;;;;;;;;;;5057350;28;20407;-83
2023/01/29 13:10:47;;;;;;;10.32;9.43;;;;;;;;;;5042392;28;20377;-84
2023/01/29 13:13:18;;;;;;;9.55;8.65;;;;;;;;;;5055844;28;20786;-84
2023/01/29 13:15:44;;;;;;;10.07;9.18;;;;;;;;;;5055556;28;20373;-85
2023/01/29 13:18:29;;;;;;;10.45;9.52;;;;;;;;;;5055983;28;20389;-84
2023/01/29 13:20:55;;;;;;;10.90;9.90;;;;;;;;;;5053658;28;20377;-83
2023/01/29 13:23:33;;;;;;;12.68;10.80;;;;;;;;;;5055104;28;20390;-82
2023/01/29 13:25:59;;;;;;;11.25;10.20;;;;;;;;;;5054751;28;20449;-83
2023/01/29 13:28:26;;;;;;;11.02;10.07;;;;;;;;;;5055153;28;20377;-83
2023/01/29 13:31:13;;;;;;;12.30;11.23;;;;;;;;;;5054429;28;20401;-82
2023/01/29 13:33:40;;;;;;;11.85;10.82;;;;;;;;;;5052360;28;20470;-83
2023/01/29 13:36:11;;;;;;;12.77;11.57;;;;;;;;;;5036564;28;20462;-82
2023/01/29 13:38:37;;;;;;;11.90;10.90;;;;;;;;;;5054893;28;20423;-82
2023/01/29 13:41:04;;;;;;;13.82;12.50;;;;;;;;;;5054723;28;20394;-82
2023/01/29 13:43:35;;;;;;;12.43;11.32;;;;;;;;;;5054356;28;20422;-84
2023/01/29 13:46:06;;;;;;;11.52;10.52;;;;;;;;;;5036402;28;20450;-84
2023/01/29 13:48:35;;;;;;;12.23;11.23;;;;;;;;;;5036423;28;20834;-84
2023/01/29 13:51:02;;;;;;;13.60;12.40;;;;;;;;;;5033316;28;20395;-84
2023/01/29 13:53:31;;;;;;;13.52;12.32;;;;;;;;;;5052528;28;20385;-82
2023/01/29 13:56:17;;;;;;;13.32;12.15;;;;;;;;;;5054148;28;20418;-81
2023/01/29 13:58:43;;;;;;;15.07;13.68;;;;;;;;;;5053746;28;20444;-82
2023/01/29 14:01:09;;;;;;;12.32;11.32;;;;;;;;;;5054414;28;20381;-81
2023/01/29 14:03:43;;;;;;;11.60;10.70;;;;;;;;;;5047100;28;20375;-82
2023/01/29 14:06:09;;;;;;;12.68;11.57;;;;;;;;;;5044885;28;20464;-82
2023/01/29 14:08:38;;;;;;;14.30;12.85;;;;;;;;;;5053339;28;20382;-82
2023/01/29 14:11:13;;;;;;;12.85;11.75;;;;;;;;;;5054024;28;20381;-83
2023/01/29 14:13:40;;;;;;;12.85;11.65;;;;;;;;;;5040875;28;20383;-82
2023/01/29 14:16:12;;;;;;;13.10;11.88;;;;;;;;;;5052504;28;20391;-82
2023/01/29 14:18:46;;;;;;;13.02;11.82;;;;;;;;;;5053797;28;20389;-82
2023/01/29 14:21:15;;;;;;;13.25;12.00;;;;;;;;;;5049772;28;20776;-82
2023/01/29 14:23:41;;;;;;;12.25;11.25;;;;;;;;;;5027082;28;20931;-81
2023/01/29 14:26:26;;;;;;;12.88;11.80;;;;;;;;;;5053411;28;20949;-81
2023/01/29 14:29:03;;;;;;;11.77;10.77;;;;;;;;;;5044725;28;20424;-83
2023/01/29 14:31:30;;;;;;;12.07;11.07;;;;;;;;;;5053384;28;20434;-83
2023/01/29 14:34:00;;;;;;;14.80;12.73;;;;;;;;;;5053377;28;20465;-85
2023/01/29 14:36:27;;;;;;;12.32;11.13;;;;;;;;;;5053280;28;20475;-84
2023/01/29 14:38:53;;;;;;;12.50;11.33;;;;;;;;;;5053351;28;20388;-83
2023/01/29 14:41:19;;;;;;;12.13;11.02;;;;;;;;;;5049544;28;20395;-83
2023/01/29 14:43:45;;;;;;;12.07;10.98;;;;;;;;;;5052874;28;20386;-83
2023/01/29 14:46:30;;;;;;;11.73;10.63;;;;;;;;;;5035297;28;20522;-83
2023/01/29 14:48:55;;;;;;;11.63;10.45;;;;;;;;;;5053099;28;20433;-83
2023/01/29 14:51:22;;;;;;;11.75;10.77;;;;;;;;;;5052958;28;20746;-83
2023/01/29 14:53:48;;;;;;;12.63;11.38;;;;;;;;;;5052011;28;20388;-83
2023/01/29 14:56:35;;;;;;;11.50;10.50;;;;;;;;;;5052376;28;20837;-83
2023/01/29 14:59:01;;;;;;;12.32;11.13;;;;;;;;;;5040573;28;20433;-83
2023/01/29 15:01:34;;;;;;;11.93;10.82;;;;;;;;;;5034406;28;20392;-83
2023/01/29 15:04:03;;;;;;;12.68;11.57;;;;;;;;;;5052406;28;20430;-83
2023/01/29 15:06:37;;;;;;;12.07;10.90;;;;;;;;;;5034798;28;20446;-83
2023/01/29 15:09:12;;;;;;;11.98;10.88;;;;;;;;;;5052881;28;20787;-83
2023/01/29 15:11:47;;;;;;;13.75;12.32;;;;;;;;;;5052736;28;20473;-83